Terminal Aerodrome Forecast
Issued by NWS Denver/Boulder, CO

Home | Current Version | Previous Version | Text Only | Print | Product List | Glossary On
Versions: 1 2 3 4 5 6 7 8 9 10 11 12 13 14 15 16 17 18 19 20 21 22 23 24 25 26 27 28 29 30 31 32 33 34 35 36 37 38 39 40 41 42 43 44 45 46 47 48 49 50
000
FTUS45 KBOU 251125
TAFDEN
TAF
KDEN 251125Z 2512/2618 21013KT P6SM FEW150 BKN200
     FM251400 24013KT P6SM SCT100 BKN150
     FM251700 26018G28KT P6SM SCT100 BKN150
     FM252000 28020G32KT P6SM SCT090 BKN140
     FM260200 26008KT P6SM SCT090 BKN140
     FM260400 23008KT P6SM SCT070 BKN140
     FM260600 05011KT P6SM FEW020 BKN070 PROB30 2609/2614 2SM -SHSN
      BKN020 OVC040
     FM261400 15007KT P6SM FEW020 BKN070=

USA.gov is the U.S. government's official web portal to all federal, state and local government web resources and services.